sensor_id;sensor_type;location;lat;lon;timestamp;P1;durP1;ratioP1;P2;durP2;ratioP2
20739;SDS011;10530;49.968;19.844;2023-09-19T00:00:21;15.82;;;7.82;;
20739;SDS011;10530;49.968;19.844;2023-09-19T00:05:25;18.77;;;8.43;;
20739;SDS011;10530;49.968;19.844;2023-09-19T00:10:32;19.70;;;8.07;;
20739;SDS011;10530;49.968;19.844;2023-09-19T00:15:40;17.38;;;8.27;;
20739;SDS011;10530;49.968;19.844;2023-09-19T00:20:44;16.38;;;8.07;;
20739;SDS011;10530;49.968;19.844;2023-09-19T00:25:51;18.65;;;8.35;;
20739;SDS011;10530;49.968;19.844;2023-09-19T00:30:54;17.85;;;8.27;;
20739;SDS011;10530;49.968;19.844;2023-09-19T00:35:57;19.27;;;8.80;;
20739;SDS011;10530;49.968;19.844;2023-09-19T00:41:00;19.73;;;8.25;;
20739;SDS011;10530;49.968;19.844;2023-09-19T00:46:03;19.65;;;8.38;;
20739;SDS011;10530;49.968;19.844;2023-09-19T00:51:08;20.20;;;8.45;;
20739;SDS011;10530;49.968;19.844;2023-09-19T00:56:12;18.50;;;8.20;;
20739;SDS011;10530;49.968;19.844;2023-09-19T01:01:17;15.97;;;7.93;;
20739;SDS011;10530;49.968;19.844;2023-09-19T01:06:20;17.05;;;7.75;;
20739;SDS011;10530;49.968;19.844;2023-09-19T01:11:28;16.30;;;8.05;;
20739;SDS011;10530;49.968;19.844;2023-09-19T01:33:04;15.38;;;7.43;;
20739;SDS011;10530;49.968;19.844;2023-09-19T01:38:08;17.00;;;7.75;;
20739;SDS011;10530;49.968;19.844;2023-09-19T01:43:22;16.20;;;8.10;;
20739;SDS011;10530;49.968;19.844;2023-09-19T01:48:46;16.98;;;7.93;;
20739;SDS011;10530;49.968;19.844;2023-09-19T01:53:53;18.67;;;8.40;;
20739;SDS011;10530;49.968;19.844;2023-09-19T01:59:06;19.77;;;8.35;;
20739;SDS011;10530;49.968;19.844;2023-09-19T02:04:13;17.65;;;8.55;;
20739;SDS011;10530;49.968;19.844;2023-09-19T02:09:16;17.55;;;8.25;;
20739;SDS011;10530;49.968;19.844;2023-09-19T02:14:19;18.65;;;8.50;;
20739;SDS011;10530;49.968;19.844;2023-09-19T02:19:22;17.00;;;8.50;;
20739;SDS011;10530;49.968;19.844;2023-09-19T02:24:24;16.90;;;8.13;;
20739;SDS011;10530;49.968;19.844;2023-09-19T02:29:28;17.92;;;7.93;;
20739;SDS011;10530;49.968;19.844;2023-09-19T02:34:32;16.17;;;8.07;;
20739;SDS011;10530;49.968;19.844;2023-09-19T02:39:34;17.80;;;9.02;;
20739;SDS011;10530;49.968;19.844;2023-09-19T02:44:37;18.43;;;8.53;;
20739;SDS011;10530;49.968;19.844;2023-09-19T02:49:40;17.05;;;8.52;;
20739;SDS011;10530;49.968;19.844;2023-09-19T02:54:44;19.75;;;9.13;;
20739;SDS011;10530;49.968;19.844;2023-09-19T02:59:47;18.38;;;8.77;;
20739;SDS011;10530;49.968;19.844;2023-09-19T03:04:50;14.80;;;7.85;;
20739;SDS011;10530;49.968;19.844;2023-09-19T03:09:53;20.93;;;8.47;;
20739;SDS011;10530;49.968;19.844;2023-09-19T03:14:57;19.65;;;9.15;;
20739;SDS011;10530;49.968;19.844;2023-09-19T03:20:02;19.00;;;9.23;;
20739;SDS011;10530;49.968;19.844;2023-09-19T03:25:11;19.55;;;9.52;;
20739;SDS011;10530;49.968;19.844;2023-09-19T03:30:15;20.67;;;9.63;;
20739;SDS011;10530;49.968;19.844;2023-09-19T03:35:19;20.93;;;10.53;;
20739;SDS011;10530;49.968;19.844;2023-09-19T03:40:22;20.08;;;9.95;;
20739;SDS011;10530;49.968;19.844;2023-09-19T03:45:26;19.50;;;9.85;;
20739;SDS011;10530;49.968;19.844;2023-09-19T03:50:29;22.75;;;9.90;;
20739;SDS011;10530;49.968;19.844;2023-09-19T03:55:32;21.50;;;8.95;;
20739;SDS011;10530;49.968;19.844;2023-09-19T04:00:41;21.37;;;9.30;;
20739;SDS011;10530;49.968;19.844;2023-09-19T04:05:43;20.73;;;9.88;;
20739;SDS011;10530;49.968;19.844;2023-09-19T04:10:46;19.35;;;9.00;;
20739;SDS011;10530;49.968;19.844;2023-09-19T04:15:51;17.90;;;8.85;;
20739;SDS011;10530;49.968;19.844;2023-09-19T04:20:54;21.25;;;10.30;;
20739;SDS011;10530;49.968;19.844;2023-09-19T04:25:58;20.67;;;9.60;;
20739;SDS011;10530;49.968;19.844;2023-09-19T04:31:01;21.83;;;9.45;;
20739;SDS011;10530;49.968;19.844;2023-09-19T04:36:04;20.33;;;9.88;;
20739;SDS011;10530;49.968;19.844;2023-09-19T04:41:29;19.13;;;9.30;;
20739;SDS011;10530;49.968;19.844;2023-09-19T04:46:31;22.15;;;9.95;;
20739;SDS011;10530;49.968;19.844;2023-09-19T04:51:34;21.37;;;9.43;;
20739;SDS011;10530;49.968;19.844;2023-09-19T04:56:38;23.90;;;10.45;;
20739;SDS011;10530;49.968;19.844;2023-09-19T05:01:42;25.90;;;10.30;;
20739;SDS011;10530;49.968;19.844;2023-09-19T05:06:45;22.67;;;9.88;;
20739;SDS011;10530;49.968;19.844;2023-09-19T05:11:48;23.88;;;10.38;;
20739;SDS011;10530;49.968;19.844;2023-09-19T05:16:51;22.97;;;10.33;;
20739;SDS011;10530;49.968;19.844;2023-09-19T05:21:54;27.63;;;11.30;;
20739;SDS011;10530;49.968;19.844;2023-09-19T05:26:57;28.08;;;11.43;;
20739;SDS011;10530;49.968;19.844;2023-09-19T05:31:59;23.00;;;10.50;;
20739;SDS011;10530;49.968;19.844;2023-09-19T05:37:02;27.08;;;10.98;;
20739;SDS011;10530;49.968;19.844;2023-09-19T05:42:05;27.50;;;12.47;;
20739;SDS011;10530;49.968;19.844;2023-09-19T05:47:10;27.60;;;12.00;;
20739;SDS011;10530;49.968;19.844;2023-09-19T05:52:12;29.35;;;13.07;;
20739;SDS011;10530;49.968;19.844;2023-09-19T05:57:15;26.10;;;11.77;;
20739;SDS011;10530;49.968;19.844;2023-09-19T06:02:18;29.80;;;12.73;;
20739;SDS011;10530;49.968;19.844;2023-09-19T06:07:22;36.60;;;12.03;;
20739;SDS011;10530;49.968;19.844;2023-09-19T06:12:28;27.35;;;11.88;;
20739;SDS011;10530;49.968;19.844;2023-09-19T06:17:32;30.90;;;11.98;;
20739;SDS011;10530;49.968;19.844;2023-09-19T06:22:35;30.70;;;13.05;;
20739;SDS011;10530;49.968;19.844;2023-09-19T06:27:40;28.23;;;11.85;;
20739;SDS011;10530;49.968;19.844;2023-09-19T06:32:44;30.97;;;12.53;;
20739;SDS011;10530;49.968;19.844;2023-09-19T06:37:47;29.67;;;12.10;;
20739;SDS011;10530;49.968;19.844;2023-09-19T06:42:51;28.55;;;12.05;;
20739;SDS011;10530;49.968;19.844;2023-09-19T06:47:56;31.67;;;11.45;;
20739;SDS011;10530;49.968;19.844;2023-09-19T06:53:00;28.75;;;11.85;;
20739;SDS011;10530;49.968;19.844;2023-09-19T06:58:03;24.53;;;10.87;;
20739;SDS011;10530;49.968;19.844;2023-09-19T07:03:08;26.42;;;10.95;;
20739;SDS011;10530;49.968;19.844;2023-09-19T07:08:14;32.25;;;12.57;;
20739;SDS011;10530;49.968;19.844;2023-09-19T07:13:17;25.42;;;11.30;;
20739;SDS011;10530;49.968;19.844;2023-09-19T07:18:20;35.65;;;10.63;;
20739;SDS011;10530;49.968;19.844;2023-09-19T07:23:23;22.33;;;9.93;;
20739;SDS011;10530;49.968;19.844;2023-09-19T07:28:28;23.20;;;10.48;;
20739;SDS011;10530;49.968;19.844;2023-09-19T07:33:30;19.15;;;8.93;;
20739;SDS011;10530;49.968;19.844;2023-09-19T07:38:33;19.10;;;8.05;;
20739;SDS011;10530;49.968;19.844;2023-09-19T07:43:37;13.07;;;5.65;;
20739;SDS011;10530;49.968;19.844;2023-09-19T07:48:50;15.03;;;5.47;;
20739;SDS011;10530;49.968;19.844;2023-09-19T07:53:53;9.60;;;4.63;;
20739;SDS011;10530;49.968;19.844;2023-09-19T07:58:57;10.77;;;3.90;;
20739;SDS011;10530;49.968;19.844;2023-09-19T08:04:01;7.85;;;3.45;;
20739;SDS011;10530;49.968;19.844;2023-09-19T08:09:04;8.90;;;3.85;;
20739;SDS011;10530;49.968;19.844;2023-09-19T08:14:11;10.93;;;3.77;;
20739;SDS011;10530;49.968;19.844;2023-09-19T08:19:16;6.72;;;2.40;;
20739;SDS011;10530;49.968;19.844;2023-09-19T08:24:19;10.30;;;4.53;;
20739;SDS011;10530;49.968;19.844;2023-09-19T08:29:22;10.80;;;3.92;;
20739;SDS011;10530;49.968;19.844;2023-09-19T08:34:32;7.30;;;2.97;;
20739;SDS011;10530;49.968;19.844;2023-09-19T08:39:36;7.97;;;3.13;;
20739;SDS011;10530;49.968;19.844;2023-09-19T08:44:42;8.27;;;3.25;;
20739;SDS011;10530;49.968;19.844;2023-09-19T08:54:51;8.88;;;3.72;;
20739;SDS011;10530;49.968;19.844;2023-09-19T08:59:56;10.27;;;3.53;;
20739;SDS011;10530;49.968;19.844;2023-09-19T09:05:02;9.30;;;3.97;;
20739;SDS011;10530;49.968;19.844;2023-09-19T09:10:08;10.23;;;4.22;;
20739;SDS011;10530;49.968;19.844;2023-09-19T09:15:11;12.77;;;4.68;;
20739;SDS011;10530;49.968;19.844;2023-09-19T09:20:19;11.90;;;5.32;;
20739;SDS011;10530;49.968;19.844;2023-09-19T09:25:22;11.23;;;4.78;;
20739;SDS011;10530;49.968;19.844;2023-09-19T09:30:35;12.30;;;5.10;;
20739;SDS011;10530;49.968;19.844;2023-09-19T09:35:49;11.23;;;4.63;;
20739;SDS011;10530;49.968;19.844;2023-09-19T09:40:59;12.50;;;4.88;;
20739;SDS011;10530;49.968;19.844;2023-09-19T09:46:13;12.60;;;4.15;;
20739;SDS011;10530;49.968;19.844;2023-09-19T09:51:59;15.10;;;4.28;;
20739;SDS011;10530;49.968;19.844;2023-09-19T09:57:22;14.10;;;4.77;;
20739;SDS011;10530;49.968;19.844;2023-09-19T10:02:28;8.90;;;3.70;;
20739;SDS011;10530;49.968;19.844;2023-09-19T10:07:39;10.20;;;3.83;;
20739;SDS011;10530;49.968;19.844;2023-09-19T10:12:46;9.55;;;4.40;;
20739;SDS011;10530;49.968;19.844;2023-09-19T10:17:50;8.23;;;3.42;;
20739;SDS011;10530;49.968;19.844;2023-09-19T10:23:04;9.80;;;3.97;;
20739;SDS011;10530;49.968;19.844;2023-09-19T10:28:13;13.80;;;5.07;;
20739;SDS011;10530;49.968;19.844;2023-09-19T10:33:18;8.70;;;3.92;;
20739;SDS011;10530;49.968;19.844;2023-09-19T10:38:25;9.65;;;3.50;;
20739;SDS011;10530;49.968;19.844;2023-09-19T10:43:31;9.27;;;3.70;;
20739;SDS011;10530;49.968;19.844;2023-09-19T10:48:40;11.37;;;4.50;;
20739;SDS011;10530;49.968;19.844;2023-09-19T10:53:56;10.65;;;4.40;;
20739;SDS011;10530;49.968;19.844;2023-09-19T10:59:18;8.95;;;4.43;;
20739;SDS011;10530;49.968;19.844;2023-09-19T11:04:30;8.02;;;3.45;;
20739;SDS011;10530;49.968;19.844;2023-09-19T11:09:49;8.48;;;3.50;;
20739;SDS011;10530;49.968;19.844;2023-09-19T11:14:56;7.50;;;3.57;;
20739;SDS011;10530;49.968;19.844;2023-09-19T11:30:35;6.15;;;2.45;;
20739;SDS011;10530;49.968;19.844;2023-09-19T11:46:33;7.32;;;3.20;;
20739;SDS011;10530;49.968;19.844;2023-09-19T11:51:40;8.00;;;3.00;;
20739;SDS011;10530;49.968;19.844;2023-09-19T11:56:48;6.20;;;2.95;;
20739;SDS011;10530;49.968;19.844;2023-09-19T12:01:59;7.47;;;2.70;;
20739;SDS011;10530;49.968;19.844;2023-09-19T12:07:12;6.53;;;3.00;;
20739;SDS011;10530;49.968;19.844;2023-09-19T12:12:24;7.50;;;3.20;;
20739;SDS011;10530;49.968;19.844;2023-09-19T12:17:39;9.65;;;3.40;;
20739;SDS011;10530;49.968;19.844;2023-09-19T12:22:46;7.72;;;2.95;;
20739;SDS011;10530;49.968;19.844;2023-09-19T12:27:52;6.65;;;2.97;;
20739;SDS011;10530;49.968;19.844;2023-09-19T12:32:55;7.93;;;3.60;;
20739;SDS011;10530;49.968;19.844;2023-09-19T12:38:01;8.52;;;3.17;;
20739;SDS011;10530;49.968;19.844;2023-09-19T12:43:06;7.05;;;3.20;;
20739;SDS011;10530;49.968;19.844;2023-09-19T12:48:17;7.88;;;3.47;;
20739;SDS011;10530;49.968;19.844;2023-09-19T12:53:38;8.45;;;3.42;;
20739;SDS011;10530;49.968;19.844;2023-09-19T12:58:51;9.37;;;4.10;;
20739;SDS011;10530;49.968;19.844;2023-09-19T13:04:30;8.63;;;3.88;;
20739;SDS011;10530;49.968;19.844;2023-09-19T13:09:31;7.20;;;3.33;;
20739;SDS011;10530;49.968;19.844;2023-09-19T13:14:37;8.13;;;4.20;;
20739;SDS011;10530;49.968;19.844;2023-09-19T13:19:43;8.32;;;4.20;;
20739;SDS011;10530;49.968;19.844;2023-09-19T13:25:00;9.00;;;4.67;;
20739;SDS011;10530;49.968;19.844;2023-09-19T13:30:03;7.68;;;3.42;;
20739;SDS011;10530;49.968;19.844;2023-09-19T13:35:07;7.35;;;3.55;;
20739;SDS011;10530;49.968;19.844;2023-09-19T13:40:13;9.00;;;3.72;;
20739;SDS011;10530;49.968;19.844;2023-09-19T13:45:17;7.72;;;3.58;;
20739;SDS011;10530;49.968;19.844;2023-09-19T13:50:24;9.93;;;4.17;;
20739;SDS011;10530;49.968;19.844;2023-09-19T13:55:28;10.75;;;4.85;;
20739;SDS011;10530;49.968;19.844;2023-09-19T14:00:31;10.20;;;4.15;;
20739;SDS011;10530;49.968;19.844;2023-09-19T14:05:36;9.10;;;4.10;;
20739;SDS011;10530;49.968;19.844;2023-09-19T14:10:39;8.90;;;4.30;;
20739;SDS011;10530;49.968;19.844;2023-09-19T14:15:42;7.83;;;3.83;;
20739;SDS011;10530;49.968;19.844;2023-09-19T14:20:45;10.13;;;5.13;;
20739;SDS011;10530;49.968;19.844;2023-09-19T14:25:50;11.23;;;5.05;;
20739;SDS011;10530;49.968;19.844;2023-09-19T14:30:54;10.60;;;4.80;;
20739;SDS011;10530;49.968;19.844;2023-09-19T14:35:57;11.80;;;4.88;;
20739;SDS011;10530;49.968;19.844;2023-09-19T14:41:05;12.47;;;5.70;;
20739;SDS011;10530;49.968;19.844;2023-09-19T14:46:08;13.60;;;5.28;;
20739;SDS011;10530;49.968;19.844;2023-09-19T14:51:14;9.80;;;5.10;;
20739;SDS011;10530;49.968;19.844;2023-09-19T14:56:17;13.82;;;5.97;;
20739;SDS011;10530;49.968;19.844;2023-09-19T15:01:22;10.88;;;5.38;;
20739;SDS011;10530;49.968;19.844;2023-09-19T15:06:25;9.53;;;4.53;;
20739;SDS011;10530;49.968;19.844;2023-09-19T15:11:28;9.52;;;4.82;;
20739;SDS011;10530;49.968;19.844;2023-09-19T15:16:31;10.95;;;4.72;;
20739;SDS011;10530;49.968;19.844;2023-09-19T15:21:35;13.32;;;5.00;;
20739;SDS011;10530;49.968;19.844;2023-09-19T15:26:39;15.05;;;7.18;;
20739;SDS011;10530;49.968;19.844;2023-09-19T15:31:42;16.57;;;7.10;;
20739;SDS011;10530;49.968;19.844;2023-09-19T15:36:45;14.75;;;6.72;;
20739;SDS011;10530;49.968;19.844;2023-09-19T15:41:48;12.32;;;5.63;;
20739;SDS011;10530;49.968;19.844;2023-09-19T15:46:53;9.05;;;4.53;;
20739;SDS011;10530;49.968;19.844;2023-09-19T15:51:56;8.85;;;4.25;;
20739;SDS011;10530;49.968;19.844;2023-09-19T15:56:58;8.33;;;4.30;;
20739;SDS011;10530;49.968;19.844;2023-09-19T16:02:02;9.23;;;3.95;;
20739;SDS011;10530;49.968;19.844;2023-09-19T16:07:05;9.77;;;3.85;;
20739;SDS011;10530;49.968;19.844;2023-09-19T16:12:08;10.57;;;3.78;;
20739;SDS011;10530;49.968;19.844;2023-09-19T16:17:13;8.95;;;3.63;;
20739;SDS011;10530;49.968;19.844;2023-09-19T16:22:15;8.97;;;3.67;;
20739;SDS011;10530;49.968;19.844;2023-09-19T16:27:18;7.88;;;3.53;;
20739;SDS011;10530;49.968;19.844;2023-09-19T16:32:23;6.72;;;3.47;;
20739;SDS011;10530;49.968;19.844;2023-09-19T16:37:25;9.38;;;3.40;;
20739;SDS011;10530;49.968;19.844;2023-09-19T16:42:28;6.70;;;3.22;;
20739;SDS011;10530;49.968;19.844;2023-09-19T16:47:39;8.50;;;4.00;;
20739;SDS011;10530;49.968;19.844;2023-09-19T16:52:42;8.38;;;3.30;;
20739;SDS011;10530;49.968;19.844;2023-09-19T16:57:45;7.40;;;3.45;;
20739;SDS011;10530;49.968;19.844;2023-09-19T17:02:49;7.15;;;3.35;;
20739;SDS011;10530;49.968;19.844;2023-09-19T17:07:54;7.65;;;3.80;;
20739;SDS011;10530;49.968;19.844;2023-09-19T17:12:57;6.63;;;3.47;;
20739;SDS011;10530;49.968;19.844;2023-09-19T17:18:00;7.10;;;3.63;;
20739;SDS011;10530;49.968;19.844;2023-09-19T17:23:03;8.50;;;3.65;;
20739;SDS011;10530;49.968;19.844;2023-09-19T17:28:06;7.00;;;3.42;;
20739;SDS011;10530;49.968;19.844;2023-09-19T17:33:09;8.55;;;3.65;;
20739;SDS011;10530;49.968;19.844;2023-09-19T17:38:12;7.00;;;3.60;;
20739;SDS011;10530;49.968;19.844;2023-09-19T17:43:14;9.15;;;3.45;;
20739;SDS011;10530;49.968;19.844;2023-09-19T17:48:17;7.07;;;3.25;;
20739;SDS011;10530;49.968;19.844;2023-09-19T17:53:20;7.47;;;3.03;;
20739;SDS011;10530;49.968;19.844;2023-09-19T17:58:23;8.20;;;2.88;;
20739;SDS011;10530;49.968;19.844;2023-09-19T18:03:26;7.33;;;2.97;;
20739;SDS011;10530;49.968;19.844;2023-09-19T18:08:30;10.95;;;3.47;;
20739;SDS011;10530;49.968;19.844;2023-09-19T18:13:33;8.15;;;3.00;;
20739;SDS011;10530;49.968;19.844;2023-09-19T18:18:36;8.55;;;3.20;;
20739;SDS011;10530;49.968;19.844;2023-09-19T18:23:39;9.05;;;3.28;;
20739;SDS011;10530;49.968;19.844;2023-09-19T18:28:42;6.13;;;3.03;;
20739;SDS011;10530;49.968;19.844;2023-09-19T18:33:46;7.70;;;3.13;;
20739;SDS011;10530;49.968;19.844;2023-09-19T18:38:50;19.23;;;3.72;;
20739;SDS011;10530;49.968;19.844;2023-09-19T18:43:53;10.93;;;3.47;;
20739;SDS011;10530;49.968;19.844;2023-09-19T18:48:56;8.45;;;3.30;;
20739;SDS011;10530;49.968;19.844;2023-09-19T18:53:59;7.73;;;3.23;;
20739;SDS011;10530;49.968;19.844;2023-09-19T18:59:14;10.00;;;2.90;;
20739;SDS011;10530;49.968;19.844;2023-09-19T19:04:17;8.48;;;3.10;;
20739;SDS011;10530;49.968;19.844;2023-09-19T19:09:20;6.45;;;2.83;;
20739;SDS011;10530;49.968;19.844;2023-09-19T19:14:23;6.32;;;3.08;;
20739;SDS011;10530;49.968;19.844;2023-09-19T19:19:26;6.20;;;2.70;;
20739;SDS011;10530;49.968;19.844;2023-09-19T19:24:29;6.30;;;2.80;;
20739;SDS011;10530;49.968;19.844;2023-09-19T19:29:32;6.35;;;3.17;;
20739;SDS011;10530;49.968;19.844;2023-09-19T19:34:34;6.40;;;3.10;;
20739;SDS011;10530;49.968;19.844;2023-09-19T19:39:38;7.53;;;3.40;;
20739;SDS011;10530;49.968;19.844;2023-09-19T19:44:41;7.20;;;2.90;;
20739;SDS011;10530;49.968;19.844;2023-09-19T19:49:45;9.32;;;3.08;;
20739;SDS011;10530;49.968;19.844;2023-09-19T19:54:49;8.30;;;3.25;;
20739;SDS011;10530;49.968;19.844;2023-09-19T19:59:55;7.57;;;2.90;;
20739;SDS011;10530;49.968;19.844;2023-09-19T20:04:59;10.00;;;2.95;;
20739;SDS011;10530;49.968;19.844;2023-09-19T20:10:06;6.53;;;3.10;;
20739;SDS011;10530;49.968;19.844;2023-09-19T20:15:09;9.93;;;3.17;;
20739;SDS011;10530;49.968;19.844;2023-09-19T20:20:12;8.43;;;3.45;;
20739;SDS011;10530;49.968;19.844;2023-09-19T20:25:18;9.13;;;3.30;;
20739;SDS011;10530;49.968;19.844;2023-09-19T20:30:22;9.63;;;3.13;;
20739;SDS011;10530;49.968;19.844;2023-09-19T20:35:25;9.23;;;3.07;;
20739;SDS011;10530;49.968;19.844;2023-09-19T20:40:29;6.43;;;3.03;;
20739;SDS011;10530;49.968;19.844;2023-09-19T20:45:33;7.07;;;3.20;;
20739;SDS011;10530;49.968;19.844;2023-09-19T20:50:42;7.03;;;3.17;;
20739;SDS011;10530;49.968;19.844;2023-09-19T20:55:45;9.27;;;3.72;;
20739;SDS011;10530;49.968;19.844;2023-09-19T21:00:47;7.50;;;3.40;;
20739;SDS011;10530;49.968;19.844;2023-09-19T21:06:01;7.65;;;3.22;;
20739;SDS011;10530;49.968;19.844;2023-09-19T21:16:18;7.20;;;3.53;;
20739;SDS011;10530;49.968;19.844;2023-09-19T21:21:23;9.77;;;3.25;;
20739;SDS011;10530;49.968;19.844;2023-09-19T21:26:26;7.67;;;3.20;;
20739;SDS011;10530;49.968;19.844;2023-09-19T21:31:29;7.93;;;3.38;;
20739;SDS011;10530;49.968;19.844;2023-09-19T21:36:31;8.80;;;3.58;;
20739;SDS011;10530;49.968;19.844;2023-09-19T21:41:37;8.25;;;3.55;;
20739;SDS011;10530;49.968;19.844;2023-09-19T21:46:39;7.32;;;3.95;;
20739;SDS011;10530;49.968;19.844;2023-09-19T21:51:42;9.70;;;3.80;;
20739;SDS011;10530;49.968;19.844;2023-09-19T21:56:45;11.15;;;3.78;;
20739;SDS011;10530;49.968;19.844;2023-09-19T22:01:50;8.40;;;3.70;;
20739;SDS011;10530;49.968;19.844;2023-09-19T22:06:53;8.77;;;3.50;;
20739;SDS011;10530;49.968;19.844;2023-09-19T22:11:55;7.03;;;3.53;;
20739;SDS011;10530;49.968;19.844;2023-09-19T22:17:01;11.10;;;4.00;;
20739;SDS011;10530;49.968;19.844;2023-09-19T22:22:04;7.43;;;4.07;;
20739;SDS011;10530;49.968;19.844;2023-09-19T22:27:10;9.63;;;4.05;;
20739;SDS011;10530;49.968;19.844;2023-09-19T22:32:14;8.77;;;3.65;;
20739;SDS011;10530;49.968;19.844;2023-09-19T22:37:16;7.10;;;3.55;;
20739;SDS011;10530;49.968;19.844;2023-09-19T22:42:19;9.13;;;3.60;;
20739;SDS011;10530;49.968;19.844;2023-09-19T22:47:25;7.05;;;3.58;;
20739;SDS011;10530;49.968;19.844;2023-09-19T22:52:29;9.57;;;4.32;;
20739;SDS011;10530;49.968;19.844;2023-09-19T22:57:31;7.85;;;3.47;;
20739;SDS011;10530;49.968;19.844;2023-09-19T23:02:37;8.32;;;3.75;;
20739;SDS011;10530;49.968;19.844;2023-09-19T23:07:44;7.50;;;3.63;;
20739;SDS011;10530;49.968;19.844;2023-09-19T23:12:55;8.82;;;3.58;;
20739;SDS011;10530;49.968;19.844;2023-09-19T23:17:59;7.72;;;3.28;;
20739;SDS011;10530;49.968;19.844;2023-09-19T23:23:02;7.57;;;3.38;;
20739;SDS011;10530;49.968;19.844;2023-09-19T23:28:06;7.22;;;3.20;;
20739;SDS011;10530;49.968;19.844;2023-09-19T23:33:09;7.60;;;3.43;;
20739;SDS011;10530;49.968;19.844;2023-09-19T23:38:15;6.47;;;3.05;;
20739;SDS011;10530;49.968;19.844;2023-09-19T23:43:18;7.20;;;3.17;;
20739;SDS011;10530;49.968;19.844;2023-09-19T23:48:21;6.82;;;3.20;;
20739;SDS011;10530;49.968;19.844;2023-09-19T23:53:26;7.93;;;3.42;;
20739;SDS011;10530;49.968;19.844;2023-09-19T23:58:30;7.70;;;3.50;;
